Time;durP1;ratioP1;P1;durP2;ratioP2;P2;SDS_P1;SDS_P2;PMS_P1;PMS_P2;Temp;Humidity;BMP_temperature;BMP_pressure;BME280_temperature;BME280_humidity;BME280_pressure;Samples;Min_cycle;Max_cycle;Signal;HPM_P1;HPM_P2
2021/03/05 00:01:58;;;;;;;;;;;;;;;0.58;100.00;101185.59;5092847;28;19924;-67
2021/03/05 00:04:24;;;;;;;;;;;;;;;0.58;100.00;101190.06;5092728;28;19932;-67
2021/03/05 00:06:50;;;;;;;;;;;;;;;0.55;100.00;101193.72;5101569;28;19924;-67
2021/03/05 00:09:16;;;;;;;;;;;;;;;0.54;100.00;101194.63;5105669;28;20034;-67
2021/03/05 00:11:42;;;;;;;;;;;;;;;0.54;100.00;101210.66;5112157;28;20402;-67
2021/03/05 00:14:08;;;;;;;;;;;;;;;0.52;100.00;101212.50;5112852;28;19977;-66
2021/03/05 00:16:34;;;;;;;;;;;;;;;0.52;100.00;101212.50;5112615;28;20326;-67
2021/03/05 00:19:00;;;;;;;;;;;;;;;0.52;100.00;101209.81;5112953;28;19931;-67
2021/03/05 00:21:26;;;;;;;;;;;;;;;0.47;100.00;101201.97;5112895;28;19931;-66
2021/03/05 00:23:52;;;;;;;;;;;;;;;0.42;100.00;101214.59;5112664;28;20392;-67
2021/03/05 00:26:18;;;;;;;;;;;;;;;0.36;100.00;101222.81;5112480;28;20023;-66
2021/03/05 00:28:44;;;;;;;;;;;;;;;0.28;100.00;101225.72;5112437;28;19924;-67
2021/03/05 00:31:09;;;;;;;;;;;;;;;0.21;100.00;101233.94;5112524;28;19923;-67
2021/03/05 00:33:35;;;;;;;;;;;;;;;0.13;100.00;101229.72;5112597;28;19931;-67
2021/03/05 00:36:01;;;;;;;;;;;;;;;0.06;100.00;101229.94;5112390;28;19931;-67
2021/03/05 00:38:27;;;;;;;;;;;;;;;0.00;100.00;101233.66;5111753;28;19924;-67
2021/03/05 00:40:53;;;;;;;;;;;;;;;-0.05;100.00;101240.94;5112475;28;19928;-66
2021/03/05 00:43:20;;;;;;;;;;;;;;;-0.09;100.00;101244.63;5112405;28;19947;-67
2021/03/05 00:45:46;;;;;;;;;;;;;;;-0.11;100.00;101246.44;5112138;28;20023;-67
2021/03/05 00:48:13;;;;;;;;;;;;;;;-0.15;100.00;101244.78;5110340;28;22539;-66
2021/03/05 00:50:39;;;;;;;;;;;;;;;-0.24;100.00;101245.91;5112295;28;20377;-66
2021/03/05 00:53:08;;;;;;;;;;;;;;;-0.30;100.00;101246.94;5112287;28;19935;-66
2021/03/05 00:55:34;;;;;;;;;;;;;;;-0.40;100.00;101245.44;5110895;28;20584;-67
2021/03/05 00:58:08;;;;;;;;;;;;;;;-0.50;100.00;101250.16;5111452;28;20356;-66
2021/03/05 01:00:33;;;;;;;;;;;;;;;-0.60;100.00;101252.22;5112200;28;19966;-66
2021/03/05 01:02:59;;;;;;;;;;;;;;;-0.70;100.00;101250.69;5112292;28;19923;-68
2021/03/05 01:05:26;;;;;;;;;;;;;;;-0.80;100.00;101249.16;5112126;28;20296;-67
2021/03/05 01:07:52;;;;;;;;;;;;;;;-0.88;100.00;101246.72;5110553;28;19981;-67
2021/03/05 01:10:29;;;;;;;;;;;;;;;-0.94;100.00;101246.88;5107641;28;20015;-66
2021/03/05 01:12:54;;;;;;;;;;;;;;;-1.04;100.00;101249.75;5091973;28;19924;-66
2021/03/05 01:15:21;;;;;;;;;;;;;;;-1.14;100.00;101250.03;5091484;28;19924;-66
2021/03/05 01:17:47;;;;;;;;;;;;;;;-1.21;100.00;101255.47;5091590;28;19972;-66
2021/03/05 01:20:14;;;;;;;;;;;;;;;-1.29;100.00;101257.47;5091137;28;19924;-67
2021/03/05 01:22:40;;;;;;;;;;;;;;;-1.37;100.00;101262.09;5091766;28;20007;-66
2021/03/05 01:25:07;;;;;;;;;;;;;;;-1.46;100.00;101260.50;5091532;28;20405;-67
2021/03/05 01:27:34;;;;;;;;;;;;;;;-1.50;100.00;101271.28;5091543;28;20041;-66
2021/03/05 01:30:00;;;;;;;;;;;;;;;-1.52;100.00;101272.19;5091688;28;20022;-67
2021/03/05 01:32:26;;;;;;;;;;;;;;;-1.55;100.00;101271.34;5091387;28;19931;-67
2021/03/05 01:34:52;;;;;;;;;;;;;;;-1.62;100.00;101275.09;5090160;28;20407;-67
2021/03/05 01:37:18;;;;;;;;;;;;;;;-1.69;100.00;101271.69;5091304;28;19924;-67
2021/03/05 01:39:44;;;;;;;;;;;;;;;-1.74;100.00;101274.44;5108048;28;20003;-67
2021/03/05 01:42:10;;;;;;;;;;;;;;;-1.81;100.00;101283.44;5111925;28;19964;-67
2021/03/05 01:44:36;;;;;;;;;;;;;;;-1.83;100.00;101276.41;5111267;28;19973;-66
2021/03/05 01:47:02;;;;;;;;;;;;;;;-1.91;100.00;101277.47;5111520;28;19973;-67
2021/03/05 01:49:28;;;;;;;;;;;;;;;-1.99;100.00;101281.16;5111784;28;19924;-67
2021/03/05 01:51:54;;;;;;;;;;;;;;;-2.03;100.00;101283.03;5111571;28;20385;-66
2021/03/05 01:54:20;;;;;;;;;;;;;;;-2.09;100.00;101284.00;5111526;28;19931;-66
2021/03/05 01:56:47;;;;;;;;;;;;;;;-2.11;100.00;101290.25;5111409;28;19928;-66
2021/03/05 01:59:16;;;;;;;;;;;;;;;-2.19;100.00;101291.31;5111523;28;19963;-67
2021/03/05 02:01:42;;;;;;;;;;;;;;;-2.25;100.00;101291.41;5111623;28;20312;-66
2021/03/05 02:04:08;;;;;;;;;;;;;;;-2.25;100.00;101299.38;5111345;28;19951;-66
2021/03/05 02:06:36;;;;;;;;;;;;;;;-2.30;100.00;101293.28;5111197;28;19931;-66
2021/03/05 02:09:02;;;;;;;;;;;;;;;-2.36;100.00;101302.25;5098321;28;19958;-66
2021/03/05 02:11:28;;;;;;;;;;;;;;;-2.42;100.00;101296.16;5091069;28;19971;-66
2021/03/05 02:13:56;;;;;;;;;;;;;;;-2.44;100.00;101317.47;5091082;28;19924;-66
2021/03/05 02:16:38;;;;;;;;;;;;;;;-2.49;100.00;101310.50;5090850;28;19970;-66
2021/03/05 02:19:12;;;;;;;;;;;;;;;-2.56;100.00;101305.28;5090820;28;19971;-66
2021/03/05 02:21:51;;;;;;;;;;;;;;;-2.61;100.00;101307.13;5107345;28;19981;-66
2021/03/05 02:24:27;;;;;;;;;;;;;;;-2.64;100.00;101316.97;5111353;28;19988;-66
2021/03/05 02:27:23;;;;;;;;;;;;;;;-2.67;100.00;101327.63;5111246;28;20018;-66
2021/03/05 02:30:02;;;;;;;;;;;;;;;-2.71;100.00;101332.13;5031840;28;20449;-66
2021/03/05 02:32:34;;;;;;;;;;;;;;;-2.73;100.00;101333.94;5103883;28;19963;-66
2021/03/05 02:35:01;;;;;;;;;;;;;;;-2.75;100.00;101336.63;5114919;28;19924;-67
2021/03/05 02:37:29;;;;;;;;;;;;;;;-2.78;100.00;101335.78;5112562;28;20015;-66
2021/03/05 02:39:56;;;;;;;;;;;;;;;-2.82;100.00;101336.72;5094631;28;19924;-67
2021/03/05 02:42:25;;;;;;;;;;;;;;;-2.86;100.00;101334.13;5094207;28;19962;-67
2021/03/05 02:44:54;;;;;;;;;;;;;;;-2.84;100.00;101335.88;5094402;28;20022;-66
2021/03/05 02:47:22;;;;;;;;;;;;;;;-2.80;100.00;101354.41;5094126;28;19955;-66
2021/03/05 02:49:50;;;;;;;;;;;;;;;-2.84;100.00;101339.41;5094322;28;19960;-67
2021/03/05 02:52:18;;;;;;;;;;;;;;;-2.84;100.00;101354.50;5093989;28;19964;-67
2021/03/05 02:54:45;;;;;;;;;;;;;;;-2.89;100.00;101359.88;5097197;28;19959;-66
2021/03/05 02:57:15;;;;;;;;;;;;;;;-2.96;100.00;101363.53;5113845;28;19969;-67
2021/03/05 02:59:41;;;;;;;;;;;;;;;-3.06;100.00;101368.06;5114354;28;20018;-66
2021/03/05 03:02:07;;;;;;;;;;;;;;;-3.12;100.00;101366.38;5114493;27;19963;-67
2021/03/05 03:04:33;;;;;;;;;;;;;;;-3.14;100.00;101367.31;5114398;28;19923;-66
2021/03/05 03:07:00;;;;;;;;;;;;;;;-3.25;100.00;101372.78;5113611;28;20350;-66
2021/03/05 03:09:27;;;;;;;;;;;;;;;-3.28;100.00;101371.03;5093746;28;19979;-67
2021/03/05 03:11:53;;;;;;;;;;;;;;;-3.31;100.00;101376.41;5093780;28;19954;-66
2021/03/05 03:14:20;;;;;;;;;;;;;;;-3.35;100.00;101366.72;5093682;28;19928;-66
2021/03/05 03:16:46;;;;;;;;;;;;;;;-3.38;100.00;101378.25;5093172;28;19956;-66
2021/03/05 03:19:13;;;;;;;;;;;;;;;-3.40;100.00;101380.03;5093482;28;19928;-66
2021/03/05 03:21:39;;;;;;;;;;;;;;;-3.44;100.00;101382.78;5093602;28;20010;-67
2021/03/05 03:24:07;;;;;;;;;;;;;;;-3.42;100.00;101386.25;5093605;28;20026;-66
2021/03/05 03:26:35;;;;;;;;;;;;;;;-3.43;100.00;101389.84;5093164;28;19967;-67
2021/03/05 03:29:01;;;;;;;;;;;;;;;-3.49;100.00;101400.53;5093438;28;19956;-67
2021/03/05 03:31:27;;;;;;;;;;;;;;;-3.60;100.00;101398.88;5093415;28;20243;-69
2021/03/05 03:33:53;;;;;;;;;;;;;;;-3.68;100.00;101400.75;5093134;28;19931;-66
2021/03/05 03:36:20;;;;;;;;;;;;;;;-3.80;100.00;101400.88;5093086;28;20417;-67
2021/03/05 03:38:47;;;;;;;;;;;;;;;-3.87;100.00;101402.72;5093305;28;19924;-66
2021/03/05 03:41:14;;;;;;;;;;;;;;;-3.94;100.00;101404.56;5093130;28;20044;-67
2021/03/05 03:43:40;;;;;;;;;;;;;;;-3.95;100.00;101404.59;5107395;28;19924;-66
2021/03/05 03:46:06;;;;;;;;;;;;;;;-3.93;100.00;101411.63;5113257;28;20354;-66
2021/03/05 03:48:33;;;;;;;;;;;;;;;-3.95;100.00;101410.75;5113451;28;19966;-67
2021/03/05 03:51:01;;;;;;;;;;;;;;;-3.95;100.00;101418.72;5113132;28;19924;-67
2021/03/05 03:53:27;;;;;;;;;;;;;;;-4.03;100.00;101410.81;5113423;28;19955;-66
2021/03/05 03:55:54;;;;;;;;;;;;;;;-4.09;100.00;101423.25;5113253;28;19963;-66
2021/03/05 03:58:21;;;;;;;;;;;;;;;-4.17;100.00;101418.03;5113130;28;20010;-66
2021/03/05 04:00:46;;;;;;;;;;;;;;;-4.20;100.00;101423.38;5113122;28;20026;-66
2021/03/05 04:03:13;;;;;;;;;;;;;;;-4.21;100.00;101433.09;5113084;28;19934;-67
2021/03/05 04:05:42;;;;;;;;;;;;;;;-4.27;100.00;101426.97;5112789;28;20445;-67
2021/03/05 04:08:09;;;;;;;;;;;;;;;-4.31;100.00;101452.63;5103407;28;19956;-66
2021/03/05 04:10:36;;;;;;;;;;;;;;;-4.37;100.00;101461.53;5092553;28;19959;-67
2021/03/05 04:13:02;;;;;;;;;;;;;;;-4.42;100.00;101459.81;5092435;28;20026;-66
2021/03/05 04:15:29;;;;;;;;;;;;;;;-4.46;100.00;101455.38;5092448;28;20161;-67
2021/03/05 04:17:55;;;;;;;;;;;;;;;-4.46;100.00;101463.34;5092218;28;19955;-66
2021/03/05 04:20:22;;;;;;;;;;;;;;;-4.48;100.00;101468.66;5092327;28;19924;-66
2021/03/05 04:22:49;;;;;;;;;;;;;;;-4.48;100.00;101463.34;5092273;28;20574;-67
2021/03/05 04:25:15;;;;;;;;;;;;;;;-4.44;100.00;101472.16;5092154;28;19991;-66
2021/03/05 04:27:41;;;;;;;;;;;;;;;-4.41;100.00;101478.34;5091677;28;19978;-67
2021/03/05 04:30:07;;;;;;;;;;;;;;;-4.37;100.00;101468.56;5092159;28;19938;-67
2021/03/05 04:32:34;;;;;;;;;;;;;;;-4.32;100.00;101482.69;5091913;28;20027;-67
2021/03/05 04:35:00;;;;;;;;;;;;;;;-4.32;100.00;101481.81;5091951;28;19963;-67
2021/03/05 04:37:26;;;;;;;;;;;;;;;-4.29;100.00;101476.47;5091767;28;19931;-66
2021/03/05 04:39:52;;;;;;;;;;;;;;;-4.32;100.00;101482.69;5092099;28;19951;-66
2021/03/05 04:42:17;;;;;;;;;;;;;;;-4.33;100.00;101477.38;5091694;28;19960;-67
2021/03/05 04:44:43;;;;;;;;;;;;;;;-4.33;100.00;101486.22;5091757;28;19924;-66
2021/03/05 04:47:09;;;;;;;;;;;;;;;-4.32;100.00;101487.97;5091622;28;20006;-67
2021/03/05 04:49:35;;;;;;;;;;;;;;;-4.31;100.00;101495.03;5091840;28;19924;-67
2021/03/05 04:52:01;;;;;;;;;;;;;;;-4.27;100.00;101498.56;5091686;28;19964;-67
2021/03/05 04:54:27;;;;;;;;;;;;;;;-4.27;100.00;101507.38;5103324;28;19980;-66
2021/03/05 04:56:53;;;;;;;;;;;;;;;-4.30;100.00;101501.22;5111903;28;19923;-67
2021/03/05 04:59:19;;;;;;;;;;;;;;;-4.30;100.00;101501.22;5111896;28;20001;-66
2021/03/05 05:01:45;;;;;;;;;;;;;;;-4.25;100.00;101504.72;5111897;28;19936;-66
2021/03/05 05:04:10;;;;;;;;;;;;;;;-4.29;100.00;101508.28;5111841;28;19931;-66
2021/03/05 05:06:37;;;;;;;;;;;;;;;-4.30;100.00;101507.41;5111142;28;19931;-66
2021/03/05 05:09:03;;;;;;;;;;;;;;;-4.36;100.00;101504.81;5112080;28;19941;-66
2021/03/05 05:11:29;;;;;;;;;;;;;;;-4.43;100.00;101505.75;5111875;28;19924;-66
2021/03/05 05:13:55;;;;;;;;;;;;;;;-4.50;100.00;101510.22;5107918;28;20022;-65
2021/03/05 05:16:20;;;;;;;;;;;;;;;-4.51;100.00;101515.53;5111683;28;19931;-66
2021/03/05 05:18:46;;;;;;;;;;;;;;;-4.54;100.00;101513.78;5111641;28;19947;-67
2021/03/05 05:21:12;;;;;;;;;;;;;;;-4.60;100.00;101519.97;5111849;28;19927;-68
2021/03/05 05:23:39;;;;;;;;;;;;;;;-4.61;100.00;101517.31;5111895;28;19945;-66
2021/03/05 05:26:04;;;;;;;;;;;;;;;-4.65;100.00;101521.78;5110007;28;19924;-68
2021/03/05 05:28:30;;;;;;;;;;;;;;;-4.64;100.00;101523.53;5110613;28;19924;-68
2021/03/05 05:30:56;;;;;;;;;;;;;;;-4.60;100.00;101519.97;5111695;28;19924;-68
2021/03/05 05:33:22;;;;;;;;;;;;;;;-4.59;100.00;101521.72;5110257;28;20034;-68
2021/03/05 05:35:47;;;;;;;;;;;;;;;-4.66;100.00;101525.31;5107685;28;19930;-68
2021/03/05 05:38:13;;;;;;;;;;;;;;;-4.72;100.00;101533.28;5105571;28;20534;-68
2021/03/05 05:40:40;;;;;;;;;;;;;;;-4.73;100.00;101534.16;5093811;28;19928;-69
2021/03/05 05:43:06;;;;;;;;;;;;;;;-4.66;100.00;101533.25;5090118;28;19924;-67
2021/03/05 05:45:32;;;;;;;;;;;;;;;-4.65;100.00;101544.72;5091009;28;19967;-67
2021/03/05 05:47:59;;;;;;;;;;;;;;;-4.72;100.00;101544.78;5101381;28;19925;-68
2021/03/05 05:50:26;;;;;;;;;;;;;;;-4.73;100.00;101550.97;5099699;28;19985;-68
2021/03/05 05:52:54;;;;;;;;;;;;;;;-4.62;100.00;101547.34;5110518;28;19950;-68
2021/03/05 05:55:20;;;;;;;;;;;;;;;-4.51;100.00;101549.97;5109775;28;19923;-68
2021/03/05 05:57:47;;;;;;;;;;;;;;;-4.47;100.00;101547.28;5102928;28;19963;-68
2021/03/05 06:00:13;;;;;;;;;;;;;;;-4.39;100.00;101549.91;5097195;28;19967;-70
2021/03/05 06:02:40;;;;;;;;;;;;;;;-4.30;100.00;101556.91;5109441;28;20375;-68
2021/03/05 06:05:07;;;;;;;;;;;;;;;-4.15;100.00;101555.94;5107725;28;19924;-67
2021/03/05 06:07:34;;;;;;;;;;;;;;;-3.99;100.00;101560.22;5111064;28;19935;-67
2021/03/05 06:09:59;;;;;;;;;;;;;;;-3.81;100.00;101571.59;5111110;28;19931;-68
2021/03/05 06:12:25;;;;;;;;;;;;;;;-3.63;100.00;101568.78;5097127;28;19924;-67
2021/03/05 06:14:52;;;;;;;;;;;;;;;-3.41;100.00;101579.19;5094507;28;19954;-67
2021/03/05 06:17:17;;;;;;;;;;;;;;;-3.13;100.00;101577.13;5094729;28;19963;-67
2021/03/05 06:19:43;;;;;;;;;;;;;;;-2.72;100.00;101586.41;5098612;28;19924;-68
2021/03/05 06:22:19;;;;;;;;;;;;;;;-2.37;100.00;101589.50;5099100;28;19928;-68
2021/03/05 06:24:45;;;;;;;;;;;;;;;-1.95;100.00;101584.47;5097781;28;20009;-68
2021/03/05 06:27:12;;;;;;;;;;;;;;;-1.65;100.00;101603.50;5104630;28;19924;-68
2021/03/05 06:29:42;;;;;;;;;;;;;;;-1.46;100.00;101605.88;5103018;28;19932;-68
2021/03/05 06:32:09;;;;;;;;;;;;;;;-1.21;100.00;101601.88;5094174;28;20000;-68
2021/03/05 06:34:43;;;;;;;;;;;;;;;-1.17;100.00;101600.03;5102173;28;19923;-68
2021/03/05 06:37:09;;;;;;;;;;;;;;;-1.28;100.00;101597.56;5111588;28;20018;-67
2021/03/05 06:39:35;;;;;;;;;;;;;;;-1.29;100.00;101617.13;5101972;28;19935;-68
2021/03/05 06:42:02;;;;;;;;;;;;;;;-1.05;100.00;101614.91;5105424;28;19924;-68
2021/03/05 06:44:28;;;;;;;;;;;;;;;-0.66;100.00;101617.72;5104012;28;19924;-68
2021/03/05 06:46:54;;;;;;;;;;;;;;;-0.37;100.00;101613.56;5094012;28;20476;-68
2021/03/05 06:49:21;;;;;;;;;;;;;;;-0.09;100.00;101616.50;5105468;28;19931;-68
2021/03/05 06:51:51;;;;;;;;;;;;;;;-0.04;100.00;101627.06;5114070;28;19927;-68
2021/03/05 06:54:17;;;;;;;;;;;;;;;0.14;100.00;101615.97;5112470;28;19923;-66
2021/03/05 06:56:46;;;;;;;;;;;;;;;0.47;100.00;101620.53;5110453;28;19923;-67
2021/03/05 06:59:13;;;;;;;;;;;;;;;0.67;100.00;101625.38;5109442;28;20412;-67
2021/03/05 07:01:46;;;;;;;;;;;;;;;1.22;100.00;101615.00;5112585;28;20023;-67
2021/03/05 07:04:13;;;;;;;;;;;;;;;1.40;100.00;101632.31;5102238;28;20363;-66
2021/03/05 07:06:40;;;;;;;;;;;;;;;1.38;100.00;101628.81;5111929;28;20429;-66
2021/03/05 07:09:06;;;;;;;;;;;;;;;1.32;100.00;101634.34;5108486;28;19963;-67
2021/03/05 07:11:36;;;;;;;;;;;;;;;1.26;100.00;101643.41;5110824;28;20350;-66
2021/03/05 07:14:03;;;;;;;;;;;;;;;1.58;100.00;101649.66;5114159;28;20692;-64
2021/03/05 07:16:37;;;;;;;;;;;;;;;1.43;100.00;101642.06;5112263;28;19923;-64
2021/03/05 07:19:03;;;;;;;;;;;;;;;1.65;100.00;101647.69;5102778;28;20010;-65
2021/03/05 07:21:29;;;;;;;;;;;;;;;1.75;100.00;101648.28;5113744;28;19981;-65
2021/03/05 07:23:57;;;;;;;;;;;;;;;1.24;100.00;101649.72;5099073;28;20613;-65
2021/03/05 07:26:23;;;;;;;;;;;;;;;1.69;100.00;101643.97;5093688;28;19978;-64
2021/03/05 07:28:49;;;;;;;;;;;;;;;1.82;100.00;101647.19;5113765;28;19924;-64
2021/03/05 07:31:16;;;;;;;;;;;;;;;1.38;100.00;101647.53;5111334;28;19968;-66
2021/03/05 07:33:43;;;;;;;;;;;;;;;1.01;100.00;101651.22;5111829;28;20330;-67
2021/03/05 07:36:09;;;;;;;;;;;;;;;0.91;100.00;101668.41;5107967;28;20423;-66
2021/03/05 07:38:39;;;;;;;;;;;;;;;0.61;100.00;101652.25;5103754;28;19963;-66
2021/03/05 07:41:06;;;;;;;;;;;;;;;0.43;100.00;101659.81;5106773;28;20022;-66
2021/03/05 07:43:32;;;;;;;;;;;;;;;0.40;100.00;101669.69;5093927;28;19963;-66
2021/03/05 07:45:58;;;;;;;;;;;;;;;0.65;100.00;101664.63;5104206;28;19931;-66
2021/03/05 07:48:24;;;;;;;;;;;;;;;1.00;100.00;101669.06;5095865;28;20443;-65
2021/03/05 07:50:50;;;;;;;;;;;;;;;1.05;100.00;101663.59;5113338;28;19927;-65
2021/03/05 07:53:16;;;;;;;;;;;;;;;1.87;100.00;101669.34;5107122;28;19928;-64
2021/03/05 07:55:43;;;;;;;;;;;;;;;2.36;100.00;101674.97;5094911;28;19932;-65
2021/03/05 07:58:09;;;;;;;;;;;;;;;2.50;100.00;101670.06;5092876;28;19924;-65
2021/03/05 08:00:47;;;;;;;;;;;;;;;2.68;100.00;101659.66;5095262;28;20019;-65
2021/03/05 08:03:13;;;;;;;;;;;;;;;2.99;100.00;101656.81;5092752;28;19928;-65
2021/03/05 08:05:40;;;;;;;;;;;;;;;3.10;100.00;101669.84;5093357;28;19964;-64
2021/03/05 08:08:07;;;;;;;;;;;;;;;3.09;100.00;101660.06;5093639;28;19956;-64
2021/03/05 08:10:36;;;;;;;;;;;;;;;3.07;100.00;101679.81;5103954;28;19935;-63
2021/03/05 08:13:02;;;;;;;;;;;;;;;3.40;100.00;101672.38;5096684;28;19935;-63
2021/03/05 08:15:29;;;;;;;;;;;;;;;4.21;100.00;101672.03;5100697;28;19954;-63
2021/03/05 08:17:55;;;;;;;;;;;;;;;4.42;100.00;101690.00;5097925;28;20018;-63
2021/03/05 08:20:40;;;;;;;;;;;;;;;4.18;100.00;101682.00;5098807;28;19924;-63
2021/03/05 08:23:06;;;;;;;;;;;;;;;3.94;100.00;101688.28;5099775;28;19966;-63
2021/03/05 08:25:35;;;;;;;;;;;;;;;4.12;100.00;101682.22;5112579;28;19924;-64
2021/03/05 08:28:02;;;;;;;;;;;;;;;3.96;100.00;101686.44;5108749;28;20000;-63
2021/03/05 08:30:42;;;;;;;;;;;;;;;3.42;100.00;101699.16;5090959;28;19963;-63
2021/03/05 08:33:09;;;;;;;;;;;;;;;2.58;100.00;101709.13;5096000;28;19931;-63
2021/03/05 08:35:48;;;;;;;;;;;;;;;2.19;100.00;101718.38;5092165;28;20018;-63
2021/03/05 08:38:19;;;;;;;;;;;;;;;2.28;100.00;101719.91;5101133;28;19924;-64
2021/03/05 08:40:49;;;;;;;;;;;;;;;2.23;100.00;101724.50;5097706;28;20282;-66
2021/03/05 08:43:17;;;;;;;;;;;;;;;2.40;100.00;101727.56;5106806;28;20008;-67
2021/03/05 08:45:44;;;;;;;;;;;;;;;2.32;100.00;101734.97;5110612;28;19924;-67
2021/03/05 08:48:11;;;;;;;;;;;;;;;1.58;100.00;101737.13;5109468;28;19924;-67
2021/03/05 08:50:38;;;;;;;;;;;;;;;1.52;100.00;101739.94;5109425;28;20410;-67
2021/03/05 08:53:05;;;;;;;;;;;;;;;1.33;100.00;101741.31;5092776;28;20461;-66
2021/03/05 08:55:31;;;;;;;;;;;;;;;1.31;100.00;101739.59;5112104;28;19993;-65
2021/03/05 08:57:57;;;;;;;;;;;;;;;1.34;100.00;101751.09;5110972;28;20027;-65
2021/03/05 09:00:27;;;;;;;;;;;;;;;1.64;100.00;101753.88;5111017;28;19962;-65
2021/03/05 09:03:02;;;;;;;;;;;;;;;1.27;100.00;101752.19;5112246;28;19970;-65
2021/03/05 09:05:31;;;;;;;;;;;;;;;0.73;100.00;101758.84;5112033;28;20435;-65
2021/03/05 09:07:58;;;;;;;;;;;;;;;1.22;100.00;101761.25;5111987;28;19928;-68
2021/03/05 09:10:36;;;;;;;;;;;;;;;1.79;100.00;101768.63;5111806;28;19931;-65
2021/03/05 09:13:02;;;;;;;;;;;;;;;1.78;100.00;101758.84;5112031;28;19927;-66
2021/03/05 09:15:38;;;;;;;;;;;;;;;2.09;100.00;101755.28;5112051;28;20354;-66
2021/03/05 09:18:05;;;;;;;;;;;;;;;2.82;100.00;101764.66;5104982;28;20289;-66
2021/03/05 09:20:34;;;;;;;;;;;;;;;3.66;100.00;101760.03;5106650;28;20017;-65
2021/03/05 09:23:13;;;;;;;;;;;;;;;3.73;100.00;101758.00;5107838;28;19924;-66
2021/03/05 09:25:46;;;;;;;;;;;;;;;4.20;100.00;101770.63;5111534;28;19956;-65
2021/03/05 09:28:11;;;;;;;;;;;;;;;4.92;100.00;101782.16;5111652;28;19959;-65
2021/03/05 09:30:38;;;;;;;;;;;;;;;4.85;100.00;101785.13;5112068;28;19972;-65
2021/03/05 09:33:04;;;;;;;;;;;;;;;5.57;100.00;101779.47;5111723;28;19974;-65
2021/03/05 09:35:31;;;;;;;;;;;;;;;6.28;100.00;101777.22;5111590;28;20018;-65
2021/03/05 09:37:57;;;;;;;;;;;;;;;7.15;100.00;101782.03;5109809;28;19927;-65
2021/03/05 09:40:23;;;;;;;;;;;;;;;7.33;100.00;101784.75;5101209;28;20290;-65
2021/03/05 09:42:51;;;;;;;;;;;;;;;7.31;100.00;101783.94;5111899;28;19973;-65
2021/03/05 09:45:36;;;;;;;;;;;;;;;6.62;100.00;101783.69;5113024;28;19927;-66
2021/03/05 09:48:02;;;;;;;;;;;;;;;5.88;100.00;101789.78;5104682;28;19928;-66
2021/03/05 09:50:29;;;;;;;;;;;;;;;5.60;100.00;101793.69;5095567;28;20439;-66
2021/03/05 09:52:54;;;;;;;;;;;;;;;6.07;100.00;101802.47;5095994;28;19976;-67
2021/03/05 09:55:27;;;;;;;;;;;;;;;7.25;100.00;101800.47;5102296;28;20451;-66
2021/03/05 09:57:54;;;;;;;;;;;;;;;7.73;100.00;101801.59;5111232;28;19923;-67
2021/03/05 10:00:26;;;;;;;;;;;;;;;8.31;100.00;101788.63;5115503;28;19967;-66
2021/03/05 10:03:00;;;;;;;;;;;;;;;8.18;100.00;101788.44;5097931;28;19930;-66
2021/03/05 10:05:26;;;;;;;;;;;;;;;7.80;100.00;101792.25;5094758;28;19938;-66
2021/03/05 10:07:53;;;;;;;;;;;;;;;6.79;100.00;101800.91;5094956;28;19928;-67
2021/03/05 10:10:19;;;;;;;;;;;;;;;7.25;100.00;101804.03;5111588;28;20008;-67
2021/03/05 10:12:50;;;;;;;;;;;;;;;7.59;100.00;101801.44;5113951;28;20392;-67
2021/03/05 10:15:16;;;;;;;;;;;;;;;8.69;96.48;101797.34;5112572;28;20368;-67
2021/03/05 10:17:42;;;;;;;;;;;;;;;8.47;96.04;101803.09;5106590;28;20015;-67
2021/03/05 10:20:08;;;;;;;;;;;;;;;8.58;93.50;101812.44;5099690;28;19924;-67
2021/03/05 10:22:34;;;;;;;;;;;;;;;8.87;86.80;101806.28;5095451;28;20023;-66
2021/03/05 10:25:01;;;;;;;;;;;;;;;9.28;81.78;101812.09;5106962;28;20385;-66
2021/03/05 10:27:27;;;;;;;;;;;;;;;9.54;74.07;101802.44;5111361;28;20015;-67
2021/03/05 10:29:56;;;;;;;;;;;;;;;9.37;73.34;101807.00;5093364;28;19928;-66
2021/03/05 10:32:22;;;;;;;;;;;;;;;8.05;77.22;101813.41;5096851;28;20018;-67
2021/03/05 10:34:49;;;;;;;;;;;;;;;9.04;75.61;101820.69;5114930;28;20396;-66
2021/03/05 10:37:15;;;;;;;;;;;;;;;8.72;72.84;101815.25;5112642;28;20316;-66
2021/03/05 10:39:42;;;;;;;;;;;;;;;8.96;73.88;101823.81;5097836;28;19977;-66
2021/03/05 10:42:11;;;;;;;;;;;;;;;9.41;68.86;101825.78;5107924;28;20014;-67
2021/03/05 10:44:36;;;;;;;;;;;;;;;9.78;62.29;101819.06;5104976;28;20012;-67
2021/03/05 10:47:03;;;;;;;;;;;;;;;10.22;61.02;101815.44;5105877;28;19923;-65
2021/03/05 10:49:29;;;;;;;;;;;;;;;10.17;63.24;101822.16;5114280;28;19924;-64
2021/03/05 10:51:56;;;;;;;;;;;;;;;10.47;59.65;101823.91;5106370;28;20015;-67
2021/03/05 10:54:22;;;;;;;;;;;;;;;10.79;58.83;101823.69;5113826;28;20429;-67
2021/03/05 10:56:48;;;;;;;;;;;;;;;10.82;54.84;101813.53;5114222;28;19931;-67
2021/03/05 10:59:16;;;;;;;;;;;;;;;10.76;54.34;101819.34;5113294;28;20030;-67
2021/03/05 11:01:42;;;;;;;;;;;;;;;10.81;55.09;101819.91;5093868;28;19924;-67
2021/03/05 11:04:08;;;;;;;;;;;;;;;10.09;55.09;101822.59;5093653;28;19969;-66
2021/03/05 11:06:33;;;;;;;;;;;;;;;9.63;58.26;101828.09;5093681;28;19924;-67
2021/03/05 11:09:00;;;;;;;;;;;;;;;9.53;57.86;101827.78;5109909;28;19931;-67
2021/03/05 11:11:26;;;;;;;;;;;;;;;8.87;59.38;101836.06;5101962;28;19931;-66
2021/03/05 11:13:52;;;;;;;;;;;;;;;8.73;64.44;101837.81;5113059;28;20048;-67
2021/03/05 11:16:19;;;;;;;;;;;;;;;8.74;63.23;101842.25;5102185;28;20018;-66
2021/03/05 11:18:44;;;;;;;;;;;;;;;9.46;57.08;101840.84;5104833;28;20018;-67
2021/03/05 11:21:10;;;;;;;;;;;;;;;9.95;56.12;101831.56;5102608;28;19939;-67
2021/03/05 11:23:36;;;;;;;;;;;;;;;10.18;51.56;101832.91;5093312;28;20357;-67
2021/03/05 11:26:02;;;;;;;;;;;;;;;10.54;48.94;101826.16;5101389;28;19931;-66
2021/03/05 11:28:28;;;;;;;;;;;;;;;10.19;47.84;101825.63;5109580;28;19924;-67
2021/03/05 11:30:53;;;;;;;;;;;;;;;9.84;47.19;101836.78;5093293;28;19928;-65
2021/03/05 11:33:20;;;;;;;;;;;;;;;10.15;46.47;101826.78;5112223;28;19923;-66
2021/03/05 11:35:46;;;;;;;;;;;;;;;9.74;47.01;101836.50;5113312;28;19924;-65
2021/03/05 11:38:12;;;;;;;;;;;;;;;9.87;48.57;101831.19;5096754;28;19950;-65
2021/03/05 11:40:37;;;;;;;;;;;;;;;10.33;49.52;101825.63;5113494;28;19926;-65
2021/03/05 11:43:04;;;;;;;;;;;;;;;10.28;46.86;101829.59;5097576;28;19928;-65
2021/03/05 11:45:29;;;;;;;;;;;;;;;10.73;45.19;101822.25;5094593;28;19924;-66
2021/03/05 11:47:55;;;;;;;;;;;;;;;10.99;46.70;101830.56;5106235;28;19931;-66
2021/03/05 11:50:22;;;;;;;;;;;;;;;11.15;44.42;101831.28;5113215;28;20396;-66
2021/03/05 11:52:48;;;;;;;;;;;;;;;11.12;41.22;101834.22;5108896;28;20441;-67
2021/03/05 11:55:14;;;;;;;;;;;;;;;10.84;42.69;101832.44;5093814;28;19939;-66
2021/03/05 11:57:40;;;;;;;;;;;;;;;10.87;41.80;101827.66;5094740;28;20019;-67
2021/03/05 12:00:07;;;;;;;;;;;;;;;11.09;42.09;101841.69;5111548;28;19931;-66
2021/03/05 12:02:33;;;;;;;;;;;;;;;11.34;39.61;101830.94;5093110;28;19976;-66
2021/03/05 12:04:58;;;;;;;;;;;;;;;11.56;40.44;101830.34;5092215;28;19924;-67
2021/03/05 12:07:25;;;;;;;;;;;;;;;11.15;40.67;101824.97;5110134;28;20360;-66
2021/03/05 12:09:51;;;;;;;;;;;;;;;11.66;39.42;101824.28;5109652;28;19951;-68
2021/03/05 12:12:18;;;;;;;;;;;;;;;11.60;36.36;101827.41;5105948;28;19928;-68
2021/03/05 12:14:44;;;;;;;;;;;;;;;10.71;38.00;101832.34;5106233;28;19995;-65
2021/03/05 12:17:10;;;;;;;;;;;;;;;11.12;38.57;101842.34;5101221;28;20326;-66
2021/03/05 12:19:36;;;;;;;;;;;;;;;11.16;35.49;101824.88;5104358;28;19934;-68
2021/03/05 12:22:02;;;;;;;;;;;;;;;11.33;35.97;101828.31;5107821;28;20334;-67
2021/03/05 12:24:28;;;;;;;;;;;;;;;11.23;35.83;101826.19;5112575;28;19924;-68
2021/03/05 12:26:54;;;;;;;;;;;;;;;11.08;34.77;101824.50;5112463;28;19962;-68
2021/03/05 12:29:20;;;;;;;;;;;;;;;11.35;35.75;101818.22;5112557;28;19924;-68
2021/03/05 12:31:46;;;;;;;;;;;;;;;11.56;34.62;101827.63;5109906;28;19931;-68
2021/03/05 12:34:12;;;;;;;;;;;;;;;11.75;33.08;101828.22;5095440;28;19934;-68